sensor_id;sensor_type;location;lat;lon;timestamp;P1;durP1;ratioP1;P2;durP2;ratioP2
64865;SDS011;51347;41.994;21.402;2022-08-11T00:01:46;5.25;;;4.70;;
64865;SDS011;51347;41.994;21.402;2022-08-11T00:04:12;6.63;;;4.80;;
64865;SDS011;51347;41.994;21.402;2022-08-11T00:06:38;5.88;;;4.88;;
64865;SDS011;51347;41.994;21.402;2022-08-11T00:09:04;5.72;;;4.65;;
64865;SDS011;51347;41.994;21.402;2022-08-11T00:11:41;6.82;;;5.07;;
64865;SDS011;51347;41.994;21.402;2022-08-11T00:14:26;6.50;;;5.25;;
64865;SDS011;51347;41.994;21.402;2022-08-11T00:17:03;6.65;;;4.95;;
64865;SDS011;51347;41.994;21.402;2022-08-11T00:19:39;6.88;;;4.68;;
64865;SDS011;51347;41.994;21.402;2022-08-11T00:22:06;8.73;;;5.55;;
64865;SDS011;51347;41.994;21.402;2022-08-11T00:24:33;7.88;;;5.00;;
64865;SDS011;51347;41.994;21.402;2022-08-11T00:26:58;5.88;;;4.97;;
64865;SDS011;51347;41.994;21.402;2022-08-11T00:29:24;7.28;;;5.00;;
64865;SDS011;51347;41.994;21.402;2022-08-11T00:31:54;7.38;;;5.28;;
64865;SDS011;51347;41.994;21.402;2022-08-11T00:34:30;5.50;;;4.57;;
64865;SDS011;51347;41.994;21.402;2022-08-11T00:36:59;6.60;;;4.43;;
64865;SDS011;51347;41.994;21.402;2022-08-11T00:39:26;5.55;;;4.35;;
64865;SDS011;51347;41.994;21.402;2022-08-11T00:44:31;4.50;;;4.10;;
64865;SDS011;51347;41.994;21.402;2022-08-11T00:47:14;5.22;;;4.15;;
64865;SDS011;51347;41.994;21.402;2022-08-11T00:52:25;5.18;;;3.75;;
64865;SDS011;51347;41.994;21.402;2022-08-11T00:55:06;6.32;;;4.45;;
64865;SDS011;51347;41.994;21.402;2022-08-11T01:00:23;8.98;;;4.13;;
64865;SDS011;51347;41.994;21.402;2022-08-11T01:03:01;5.60;;;3.70;;
64865;SDS011;51347;41.994;21.402;2022-08-11T01:05:48;6.00;;;4.25;;
64865;SDS011;51347;41.994;21.402;2022-08-11T01:13:47;5.20;;;3.63;;
64865;SDS011;51347;41.994;21.402;2022-08-11T01:32:25;6.22;;;3.65;;
64865;SDS011;51347;41.994;21.402;2022-08-11T01:35:05;3.65;;;3.17;;
64865;SDS011;51347;41.994;21.402;2022-08-11T01:43:12;3.97;;;3.58;;
64865;SDS011;51347;41.994;21.402;2022-08-11T01:58:44;5.00;;;3.63;;
64865;SDS011;51347;41.994;21.402;2022-08-11T02:01:22;3.78;;;2.60;;
64865;SDS011;51347;41.994;21.402;2022-08-11T02:07:08;4.13;;;3.17;;
64865;SDS011;51347;41.994;21.402;2022-08-11T02:09:29;3.33;;;2.90;;
64865;SDS011;51347;41.994;21.402;2022-08-11T02:12:00;3.95;;;3.15;;
64865;SDS011;51347;41.994;21.402;2022-08-11T02:17:04;3.88;;;2.92;;
64865;SDS011;51347;41.994;21.402;2022-08-11T02:22:30;3.42;;;2.88;;
64865;SDS011;51347;41.994;21.402;2022-08-11T02:25:30;4.50;;;3.00;;
64865;SDS011;51347;41.994;21.402;2022-08-11T02:28:18;3.08;;;2.78;;
64865;SDS011;51347;41.994;21.402;2022-08-11T02:30:58;6.18;;;3.33;;
64865;SDS011;51347;41.994;21.402;2022-08-11T02:33:44;7.35;;;2.75;;
64865;SDS011;51347;41.994;21.402;2022-08-11T02:36:16;3.70;;;2.95;;
64865;SDS011;51347;41.994;21.402;2022-08-11T02:44:20;7.53;;;3.25;;
64865;SDS011;51347;41.994;21.402;2022-08-11T02:49:25;3.95;;;2.72;;
64865;SDS011;51347;41.994;21.402;2022-08-11T02:52:29;2.85;;;2.30;;
64865;SDS011;51347;41.994;21.402;2022-08-11T02:55:02;3.97;;;2.80;;
64865;SDS011;51347;41.994;21.402;2022-08-11T02:57:34;3.75;;;3.00;;
64865;SDS011;51347;41.994;21.402;2022-08-11T03:00:06;4.90;;;2.83;;
64865;SDS011;51347;41.994;21.402;2022-08-11T03:05:36;4.55;;;2.80;;
64865;SDS011;51347;41.994;21.402;2022-08-11T03:08:04;5.65;;;3.28;;
64865;SDS011;51347;41.994;21.402;2022-08-11T03:13:33;6.63;;;2.80;;
64865;SDS011;51347;41.994;21.402;2022-08-11T03:16:20;6.22;;;3.13;;
64865;SDS011;51347;41.994;21.402;2022-08-11T03:19:11;4.28;;;3.00;;
64865;SDS011;51347;41.994;21.402;2022-08-11T03:21:44;3.42;;;2.90;;
64865;SDS011;51347;41.994;21.402;2022-08-11T03:24:14;6.45;;;2.65;;
64865;SDS011;51347;41.994;21.402;2022-08-11T03:26:50;3.90;;;3.20;;
64865;SDS011;51347;41.994;21.402;2022-08-11T03:29:41;7.00;;;3.13;;
64865;SDS011;51347;41.994;21.402;2022-08-11T03:32:24;4.20;;;3.25;;
64865;SDS011;51347;41.994;21.402;2022-08-11T03:34:51;4.97;;;2.83;;
64865;SDS011;51347;41.994;21.402;2022-08-11T03:43:10;3.55;;;2.80;;
64865;SDS011;51347;41.994;21.402;2022-08-11T03:51:44;4.65;;;3.10;;
64865;SDS011;51347;41.994;21.402;2022-08-11T04:10:05;4.95;;;3.03;;
64865;SDS011;51347;41.994;21.402;2022-08-11T04:20:56;4.65;;;2.63;;
64865;SDS011;51347;41.994;21.402;2022-08-11T04:23:41;3.15;;;2.30;;
64865;SDS011;51347;41.994;21.402;2022-08-11T04:31:43;5.57;;;3.60;;
64865;SDS011;51347;41.994;21.402;2022-08-11T04:37:19;3.33;;;2.67;;
64865;SDS011;51347;41.994;21.402;2022-08-11T04:40:04;6.68;;;2.92;;
64865;SDS011;51347;41.994;21.402;2022-08-11T04:56:47;4.20;;;3.00;;
64865;SDS011;51347;41.994;21.402;2022-08-11T04:59:42;7.53;;;3.47;;
64865;SDS011;51347;41.994;21.402;2022-08-11T05:05:12;5.55;;;3.10;;
64865;SDS011;51347;41.994;21.402;2022-08-11T05:13:01;4.32;;;2.92;;
64865;SDS011;51347;41.994;21.402;2022-08-11T05:15:48;4.97;;;3.13;;
64865;SDS011;51347;41.994;21.402;2022-08-11T05:18:32;6.80;;;3.40;;
64865;SDS011;51347;41.994;21.402;2022-08-11T05:21:17;8.68;;;3.55;;
64865;SDS011;51347;41.994;21.402;2022-08-11T05:24:10;5.47;;;2.65;;
64865;SDS011;51347;41.994;21.402;2022-08-11T05:26:56;5.10;;;2.97;;
64865;SDS011;51347;41.994;21.402;2022-08-11T05:29:45;4.95;;;2.63;;
64865;SDS011;51347;41.994;21.402;2022-08-11T05:32:34;3.47;;;2.80;;
64865;SDS011;51347;41.994;21.402;2022-08-11T05:35:23;4.43;;;2.97;;
64865;SDS011;51347;41.994;21.402;2022-08-11T05:37:50;8.45;;;3.33;;
64865;SDS011;51347;41.994;21.402;2022-08-11T05:40:35;4.88;;;3.03;;
64865;SDS011;51347;41.994;21.402;2022-08-11T05:43:19;5.10;;;3.38;;
64865;SDS011;51347;41.994;21.402;2022-08-11T05:46:05;9.35;;;3.50;;
64865;SDS011;51347;41.994;21.402;2022-08-11T05:48:49;3.80;;;2.70;;
64865;SDS011;51347;41.994;21.402;2022-08-11T05:51:40;5.57;;;2.92;;
64865;SDS011;51347;41.994;21.402;2022-08-11T05:54:26;5.20;;;3.08;;
64865;SDS011;51347;41.994;21.402;2022-08-11T05:57:17;6.35;;;2.85;;
64865;SDS011;51347;41.994;21.402;2022-08-11T05:59:43;6.68;;;3.40;;
64865;SDS011;51347;41.994;21.402;2022-08-11T06:02:10;4.63;;;2.90;;
64865;SDS011;51347;41.994;21.402;2022-08-11T06:04:35;8.85;;;3.55;;
64865;SDS011;51347;41.994;21.402;2022-08-11T06:07:05;8.07;;;2.55;;
64865;SDS011;51347;41.994;21.402;2022-08-11T06:12:03;5.50;;;2.85;;
64865;SDS011;51347;41.994;21.402;2022-08-11T06:14:29;5.63;;;2.80;;
64865;SDS011;51347;41.994;21.402;2022-08-11T06:17:00;8.38;;;2.60;;
64865;SDS011;51347;41.994;21.402;2022-08-11T06:19:33;7.33;;;2.50;;
64865;SDS011;51347;41.994;21.402;2022-08-11T06:22:01;3.63;;;2.25;;
64865;SDS011;51347;41.994;21.402;2022-08-11T06:24:27;3.90;;;2.30;;
64865;SDS011;51347;41.994;21.402;2022-08-11T06:26:53;6.13;;;2.55;;
64865;SDS011;51347;41.994;21.402;2022-08-11T06:29:19;6.85;;;2.97;;
64865;SDS011;51347;41.994;21.402;2022-08-11T06:31:59;6.72;;;2.97;;
64865;SDS011;51347;41.994;21.402;2022-08-11T06:47:56;11.18;;;4.07;;
64865;SDS011;51347;41.994;21.402;2022-08-11T06:50:24;6.20;;;3.00;;
64865;SDS011;51347;41.994;21.402;2022-08-11T06:53:09;6.22;;;2.25;;
64865;SDS011;51347;41.994;21.402;2022-08-11T06:55:37;5.07;;;3.25;;
64865;SDS011;51347;41.994;21.402;2022-08-11T06:58:24;4.32;;;2.13;;
64865;SDS011;51347;41.994;21.402;2022-08-11T07:01:10;7.85;;;2.90;;
64865;SDS011;51347;41.994;21.402;2022-08-11T07:03:38;2.90;;;2.17;;
64865;SDS011;51347;41.994;21.402;2022-08-11T07:14:29;6.13;;;2.80;;
64865;SDS011;51347;41.994;21.402;2022-08-11T07:17:13;7.25;;;2.67;;
64865;SDS011;51347;41.994;21.402;2022-08-11T07:19:39;3.60;;;1.92;;
64865;SDS011;51347;41.994;21.402;2022-08-11T07:22:25;6.85;;;2.63;;
64865;SDS011;51347;41.994;21.402;2022-08-11T07:25:13;6.57;;;2.47;;
64865;SDS011;51347;41.994;21.402;2022-08-11T07:28:05;5.30;;;2.50;;
64865;SDS011;51347;41.994;21.402;2022-08-11T07:30:49;3.03;;;2.17;;
64865;SDS011;51347;41.994;21.402;2022-08-11T07:33:24;6.85;;;2.63;;
64865;SDS011;51347;41.994;21.402;2022-08-11T07:35:52;5.10;;;2.57;;
64865;SDS011;51347;41.994;21.402;2022-08-11T07:41:19;6.35;;;2.75;;
64865;SDS011;51347;41.994;21.402;2022-08-11T07:43:47;3.00;;;2.33;;
64865;SDS011;51347;41.994;21.402;2022-08-11T07:46:15;9.83;;;3.13;;
64865;SDS011;51347;41.994;21.402;2022-08-11T07:49:01;4.57;;;3.08;;
64865;SDS011;51347;41.994;21.402;2022-08-11T07:51:45;3.55;;;2.15;;
64865;SDS011;51347;41.994;21.402;2022-08-11T07:54:29;7.38;;;2.83;;
64865;SDS011;51347;41.994;21.402;2022-08-11T07:56:58;4.13;;;2.17;;
64865;SDS011;51347;41.994;21.402;2022-08-11T07:59:34;3.78;;;2.55;;
64865;SDS011;51347;41.994;21.402;2022-08-11T08:02:20;4.72;;;3.47;;
64865;SDS011;51347;41.994;21.402;2022-08-11T08:05:05;5.18;;;2.20;;
64865;SDS011;51347;41.994;21.402;2022-08-11T08:07:49;3.63;;;1.95;;
64865;SDS011;51347;41.994;21.402;2022-08-11T08:10:33;3.47;;;2.10;;
64865;SDS011;51347;41.994;21.402;2022-08-11T08:13:17;3.38;;;2.47;;
64865;SDS011;51347;41.994;21.402;2022-08-11T08:16:01;3.80;;;2.25;;
64865;SDS011;51347;41.994;21.402;2022-08-11T08:18:45;2.88;;;2.13;;
64865;SDS011;51347;41.994;21.402;2022-08-11T08:21:15;4.47;;;2.33;;
64865;SDS011;51347;41.994;21.402;2022-08-11T08:23:41;7.55;;;2.17;;
64865;SDS011;51347;41.994;21.402;2022-08-11T08:26:08;9.35;;;2.53;;
64865;SDS011;51347;41.994;21.402;2022-08-11T08:28:54;5.80;;;3.72;;
64865;SDS011;51347;41.994;21.402;2022-08-11T08:31:40;5.18;;;2.35;;
64865;SDS011;51347;41.994;21.402;2022-08-11T08:34:06;4.60;;;1.90;;
64865;SDS011;51347;41.994;21.402;2022-08-11T08:36:33;2.58;;;1.80;;
64865;SDS011;51347;41.994;21.402;2022-08-11T08:38:58;4.30;;;2.20;;
64865;SDS011;51347;41.994;21.402;2022-08-11T08:41:26;4.82;;;2.83;;
64865;SDS011;51347;41.994;21.402;2022-08-11T08:43:53;6.43;;;2.25;;
64865;SDS011;51347;41.994;21.402;2022-08-11T08:46:21;5.35;;;2.72;;
64865;SDS011;51347;41.994;21.402;2022-08-11T08:48:49;2.58;;;2.20;;
64865;SDS011;51347;41.994;21.402;2022-08-11T08:51:15;3.30;;;1.70;;
64865;SDS011;51347;41.994;21.402;2022-08-11T08:54:03;2.88;;;1.70;;
64865;SDS011;51347;41.994;21.402;2022-08-11T08:56:28;5.63;;;2.10;;
64865;SDS011;51347;41.994;21.402;2022-08-11T08:58:55;5.15;;;1.77;;
64865;SDS011;51347;41.994;21.402;2022-08-11T09:01:22;6.22;;;2.17;;
64865;SDS011;51347;41.994;21.402;2022-08-11T09:03:49;2.58;;;1.60;;
64865;SDS011;51347;41.994;21.402;2022-08-11T09:12:01;1.85;;;1.55;;
64865;SDS011;51347;41.994;21.402;2022-08-11T09:14:32;4.15;;;2.28;;
64865;SDS011;51347;41.994;21.402;2022-08-11T09:17:19;2.95;;;1.80;;
64865;SDS011;51347;41.994;21.402;2022-08-11T09:19:51;3.28;;;1.98;;
64865;SDS011;51347;41.994;21.402;2022-08-11T09:22:22;5.63;;;2.03;;
64865;SDS011;51347;41.994;21.402;2022-08-11T09:25:07;4.22;;;2.15;;
64865;SDS011;51347;41.994;21.402;2022-08-11T09:27:54;3.38;;;1.80;;
64865;SDS011;51347;41.994;21.402;2022-08-11T09:30:20;2.75;;;1.90;;
64865;SDS011;51347;41.994;21.402;2022-08-11T09:32:46;5.07;;;2.15;;
64865;SDS011;51347;41.994;21.402;2022-08-11T09:35:12;4.38;;;1.90;;
64865;SDS011;51347;41.994;21.402;2022-08-11T09:37:38;5.93;;;2.30;;
64865;SDS011;51347;41.994;21.402;2022-08-11T09:40:23;3.85;;;2.22;;
64865;SDS011;51347;41.994;21.402;2022-08-11T09:43:00;2.67;;;1.98;;
64865;SDS011;51347;41.994;21.402;2022-08-11T09:45:48;4.45;;;2.33;;
64865;SDS011;51347;41.994;21.402;2022-08-11T09:48:17;3.53;;;2.28;;
64865;SDS011;51347;41.994;21.402;2022-08-11T09:50:47;4.30;;;2.10;;
64865;SDS011;51347;41.994;21.402;2022-08-11T09:53:24;5.63;;;1.63;;
64865;SDS011;51347;41.994;21.402;2022-08-11T09:55:55;2.03;;;1.58;;
64865;SDS011;51347;41.994;21.402;2022-08-11T09:58:21;2.50;;;2.10;;
64865;SDS011;51347;41.994;21.402;2022-08-11T10:00:51;5.38;;;2.38;;
64865;SDS011;51347;41.994;21.402;2022-08-11T10:03:21;4.43;;;1.88;;
64865;SDS011;51347;41.994;21.402;2022-08-11T10:05:55;3.72;;;2.00;;
64865;SDS011;51347;41.994;21.402;2022-08-11T10:08:41;3.30;;;1.60;;
64865;SDS011;51347;41.994;21.402;2022-08-11T10:11:11;4.40;;;3.03;;
64865;SDS011;51347;41.994;21.402;2022-08-11T10:13:40;2.42;;;1.70;;
64865;SDS011;51347;41.994;21.402;2022-08-11T10:16:26;4.22;;;1.73;;
64865;SDS011;51347;41.994;21.402;2022-08-11T10:18:52;2.40;;;1.52;;
64865;SDS011;51347;41.994;21.402;2022-08-11T10:21:27;3.97;;;1.55;;
64865;SDS011;51347;41.994;21.402;2022-08-11T10:23:54;2.22;;;1.60;;
64865;SDS011;51347;41.994;21.402;2022-08-11T10:26:38;2.30;;;1.90;;
64865;SDS011;51347;41.994;21.402;2022-08-11T10:29:35;3.00;;;1.50;;
64865;SDS011;51347;41.994;21.402;2022-08-11T10:32:21;6.13;;;2.17;;
64865;SDS011;51347;41.994;21.402;2022-08-11T10:35:06;3.97;;;1.55;;
64865;SDS011;51347;41.994;21.402;2022-08-11T10:37:33;5.22;;;1.80;;
64865;SDS011;51347;41.994;21.402;2022-08-11T10:40:01;1.70;;;1.10;;
64865;SDS011;51347;41.994;21.402;2022-08-11T10:42:27;3.05;;;1.40;;
64865;SDS011;51347;41.994;21.402;2022-08-11T10:45:11;2.70;;;1.52;;
64865;SDS011;51347;41.994;21.402;2022-08-11T10:47:56;2.47;;;2.00;;
64865;SDS011;51347;41.994;21.402;2022-08-11T10:50:22;3.20;;;1.83;;
64865;SDS011;51347;41.994;21.402;2022-08-11T10:53:05;4.70;;;1.95;;
64865;SDS011;51347;41.994;21.402;2022-08-11T10:55:49;3.72;;;1.70;;
64865;SDS011;51347;41.994;21.402;2022-08-11T10:58:33;4.43;;;2.22;;
64865;SDS011;51347;41.994;21.402;2022-08-11T11:03:46;2.53;;;1.60;;
64865;SDS011;51347;41.994;21.402;2022-08-11T11:09:15;2.17;;;1.80;;
64865;SDS011;51347;41.994;21.402;2022-08-11T11:11:49;3.78;;;2.72;;
64865;SDS011;51347;41.994;21.402;2022-08-11T11:14:33;6.15;;;2.53;;
64865;SDS011;51347;41.994;21.402;2022-08-11T11:17:21;5.47;;;2.30;;
64865;SDS011;51347;41.994;21.402;2022-08-11T11:19:59;4.53;;;2.03;;
64865;SDS011;51347;41.994;21.402;2022-08-11T11:22:27;3.10;;;2.03;;
64865;SDS011;51347;41.994;21.402;2022-08-11T11:30:26;4.88;;;1.70;;
64865;SDS011;51347;41.994;21.402;2022-08-11T11:38:08;3.17;;;2.20;;
64865;SDS011;51347;41.994;21.402;2022-08-11T11:40:35;3.97;;;1.95;;
64865;SDS011;51347;41.994;21.402;2022-08-11T11:43:01;3.13;;;1.80;;
64865;SDS011;51347;41.994;21.402;2022-08-11T11:45:33;3.28;;;1.58;;
64865;SDS011;51347;41.994;21.402;2022-08-11T11:47:59;4.07;;;1.80;;
64865;SDS011;51347;41.994;21.402;2022-08-11T11:50:26;2.90;;;1.92;;
64865;SDS011;51347;41.994;21.402;2022-08-11T11:52:52;2.88;;;1.85;;
64865;SDS011;51347;41.994;21.402;2022-08-11T11:55:20;4.32;;;2.25;;
64865;SDS011;51347;41.994;21.402;2022-08-11T11:57:47;2.63;;;1.92;;
64865;SDS011;51347;41.994;21.402;2022-08-11T12:00:31;8.95;;;2.40;;
64865;SDS011;51347;41.994;21.402;2022-08-11T12:03:15;4.18;;;2.00;;
64865;SDS011;51347;41.994;21.402;2022-08-11T12:05:41;3.60;;;2.15;;
64865;SDS011;51347;41.994;21.402;2022-08-11T12:08:07;4.97;;;1.70;;
64865;SDS011;51347;41.994;21.402;2022-08-11T12:10:53;4.47;;;1.77;;
64865;SDS011;51347;41.994;21.402;2022-08-11T12:13:41;3.05;;;2.20;;
64865;SDS011;51347;41.994;21.402;2022-08-11T12:16:10;4.43;;;1.85;;
64865;SDS011;51347;41.994;21.402;2022-08-11T12:18:36;6.45;;;2.55;;
64865;SDS011;51347;41.994;21.402;2022-08-11T12:21:03;2.55;;;1.85;;
64865;SDS011;51347;41.994;21.402;2022-08-11T12:23:29;3.08;;;1.58;;
64865;SDS011;51347;41.994;21.402;2022-08-11T12:26:14;2.67;;;2.03;;
64865;SDS011;51347;41.994;21.402;2022-08-11T12:29:01;4.03;;;1.75;;
64865;SDS011;51347;41.994;21.402;2022-08-11T12:34:01;4.22;;;2.40;;
64865;SDS011;51347;41.994;21.402;2022-08-11T12:36:26;2.42;;;2.00;;
64865;SDS011;51347;41.994;21.402;2022-08-11T12:38:52;4.07;;;2.55;;
64865;SDS011;51347;41.994;21.402;2022-08-11T12:41:20;4.88;;;2.60;;
64865;SDS011;51347;41.994;21.402;2022-08-11T12:44:04;2.97;;;1.95;;
64865;SDS011;51347;41.994;21.402;2022-08-11T12:46:51;5.25;;;1.88;;
64865;SDS011;51347;41.994;21.402;2022-08-11T12:49:18;5.63;;;2.25;;
64865;SDS011;51347;41.994;21.402;2022-08-11T12:52:07;4.32;;;2.40;;
64865;SDS011;51347;41.994;21.402;2022-08-11T12:57:03;2.83;;;1.88;;
64865;SDS011;51347;41.994;21.402;2022-08-11T12:59:48;5.43;;;2.55;;
64865;SDS011;51347;41.994;21.402;2022-08-11T13:02:33;2.28;;;2.00;;
64865;SDS011;51347;41.994;21.402;2022-08-11T13:05:17;5.90;;;2.08;;
64865;SDS011;51347;41.994;21.402;2022-08-11T13:07:43;4.00;;;2.60;;
64865;SDS011;51347;41.994;21.402;2022-08-11T13:10:09;1.77;;;1.60;;
64865;SDS011;51347;41.994;21.402;2022-08-11T13:12:35;6.97;;;3.13;;
64865;SDS011;51347;41.994;21.402;2022-08-11T13:15:15;2.42;;;2.20;;
64865;SDS011;51347;41.994;21.402;2022-08-11T13:17:41;2.30;;;2.10;;
64865;SDS011;51347;41.994;21.402;2022-08-11T13:20:13;6.45;;;2.40;;
64865;SDS011;51347;41.994;21.402;2022-08-11T13:22:41;6.28;;;1.90;;
64865;SDS011;51347;41.994;21.402;2022-08-11T13:25:10;3.97;;;2.50;;
64865;SDS011;51347;41.994;21.402;2022-08-11T13:27:35;4.30;;;2.38;;
64865;SDS011;51347;41.994;21.402;2022-08-11T13:30:01;3.30;;;1.70;;
64865;SDS011;51347;41.994;21.402;2022-08-11T13:32:45;3.72;;;2.08;;
64865;SDS011;51347;41.994;21.402;2022-08-11T13:35:11;3.72;;;2.72;;
64865;SDS011;51347;41.994;21.402;2022-08-11T13:37:39;4.35;;;2.13;;
64865;SDS011;51347;41.994;21.402;2022-08-11T13:40:04;7.35;;;1.98;;
64865;SDS011;51347;41.994;21.402;2022-08-11T13:42:30;5.22;;;2.03;;
64865;SDS011;51347;41.994;21.402;2022-08-11T13:44:56;3.50;;;2.15;;
64865;SDS011;51347;41.994;21.402;2022-08-11T13:47:21;6.60;;;1.83;;
64865;SDS011;51347;41.994;21.402;2022-08-11T13:49:49;2.05;;;1.85;;
64865;SDS011;51347;41.994;21.402;2022-08-11T13:52:15;4.05;;;2.20;;
64865;SDS011;51347;41.994;21.402;2022-08-11T13:54:42;4.90;;;2.58;;
64865;SDS011;51347;41.994;21.402;2022-08-11T13:57:08;5.10;;;2.25;;
64865;SDS011;51347;41.994;21.402;2022-08-11T13:59:35;4.32;;;2.10;;
64865;SDS011;51347;41.994;21.402;2022-08-11T14:02:02;2.92;;;2.10;;
64865;SDS011;51347;41.994;21.402;2022-08-11T14:04:39;4.65;;;2.42;;
64865;SDS011;51347;41.994;21.402;2022-08-11T14:07:05;3.97;;;2.28;;
64865;SDS011;51347;41.994;21.402;2022-08-11T14:09:33;5.47;;;2.42;;
64865;SDS011;51347;41.994;21.402;2022-08-11T14:12:00;3.13;;;2.10;;
64865;SDS011;51347;41.994;21.402;2022-08-11T14:14:46;2.50;;;2.03;;
64865;SDS011;51347;41.994;21.402;2022-08-11T14:17:12;3.15;;;1.77;;
64865;SDS011;51347;41.994;21.402;2022-08-11T14:19:39;4.60;;;1.98;;
64865;SDS011;51347;41.994;21.402;2022-08-11T14:22:05;4.47;;;2.50;;
64865;SDS011;51347;41.994;21.402;2022-08-11T14:24:38;4.15;;;2.00;;
64865;SDS011;51347;41.994;21.402;2022-08-11T14:27:08;3.72;;;2.00;;
64865;SDS011;51347;41.994;21.402;2022-08-11T14:29:34;4.22;;;1.90;;
64865;SDS011;51347;41.994;21.402;2022-08-11T14:32:03;4.43;;;1.80;;
64865;SDS011;51347;41.994;21.402;2022-08-11T14:34:30;3.22;;;1.95;;
64865;SDS011;51347;41.994;21.402;2022-08-11T14:37:00;6.22;;;2.30;;
64865;SDS011;51347;41.994;21.402;2022-08-11T14:39:30;3.30;;;2.00;;
64865;SDS011;51347;41.994;21.402;2022-08-11T14:42:00;4.20;;;1.85;;
64865;SDS011;51347;41.994;21.402;2022-08-11T14:44:45;3.63;;;2.20;;
64865;SDS011;51347;41.994;21.402;2022-08-11T14:47:47;4.07;;;2.13;;
64865;SDS011;51347;41.994;21.402;2022-08-11T14:50:15;4.53;;;2.38;;
64865;SDS011;51347;41.994;21.402;2022-08-11T14:52:52;5.25;;;2.38;;
64865;SDS011;51347;41.994;21.402;2022-08-11T14:55:19;3.13;;;1.70;;
64865;SDS011;51347;41.994;21.402;2022-08-11T14:58:06;4.75;;;2.20;;
64865;SDS011;51347;41.994;21.402;2022-08-11T15:00:32;3.15;;;2.10;;
64865;SDS011;51347;41.994;21.402;2022-08-11T15:02:58;4.95;;;2.10;;
64865;SDS011;51347;41.994;21.402;2022-08-11T15:05:57;2.78;;;2.30;;
64865;SDS011;51347;41.994;21.402;2022-08-11T15:08:22;4.38;;;2.35;;
64865;SDS011;51347;41.994;21.402;2022-08-11T15:11:09;4.22;;;2.05;;
64865;SDS011;51347;41.994;21.402;2022-08-11T15:13:55;3.08;;;2.08;;
64865;SDS011;51347;41.994;21.402;2022-08-11T15:16:21;4.65;;;1.98;;
64865;SDS011;51347;41.994;21.402;2022-08-11T15:19:05;2.67;;;1.50;;
64865;SDS011;51347;41.994;21.402;2022-08-11T15:21:30;5.07;;;2.17;;
64865;SDS011;51347;41.994;21.402;2022-08-11T15:24:14;3.33;;;2.28;;
64865;SDS011;51347;41.994;21.402;2022-08-11T15:26:45;3.85;;;2.20;;
64865;SDS011;51347;41.994;21.402;2022-08-11T15:29:31;4.38;;;2.08;;
64865;SDS011;51347;41.994;21.402;2022-08-11T15:32:15;2.30;;;2.00;;
64865;SDS011;51347;41.994;21.402;2022-08-11T15:35:02;2.67;;;1.90;;
64865;SDS011;51347;41.994;21.402;2022-08-11T15:37:46;2.47;;;2.28;;
64865;SDS011;51347;41.994;21.402;2022-08-11T15:40:23;2.55;;;1.80;;
64865;SDS011;51347;41.994;21.402;2022-08-11T15:46:29;7.25;;;2.20;;
64865;SDS011;51347;41.994;21.402;2022-08-11T15:48:55;2.45;;;1.88;;
64865;SDS011;51347;41.994;21.402;2022-08-11T15:51:27;4.70;;;2.05;;
64865;SDS011;51347;41.994;21.402;2022-08-11T15:53:56;3.22;;;2.15;;
64865;SDS011;51347;41.994;21.402;2022-08-11T15:56:22;2.70;;;2.05;;
64865;SDS011;51347;41.994;21.402;2022-08-11T15:58:50;3.53;;;2.10;;
64865;SDS011;51347;41.994;21.402;2022-08-11T16:01:35;4.20;;;2.15;;
64865;SDS011;51347;41.994;21.402;2022-08-11T16:04:21;3.28;;;1.98;;
64865;SDS011;51347;41.994;21.402;2022-08-11T16:09:20;4.43;;;2.17;;
64865;SDS011;51347;41.994;21.402;2022-08-11T16:11:47;3.35;;;2.20;;
64865;SDS011;51347;41.994;21.402;2022-08-11T16:14:13;3.75;;;2.45;;
64865;SDS011;51347;41.994;21.402;2022-08-11T16:16:58;3.08;;;2.42;;
64865;SDS011;51347;41.994;21.402;2022-08-11T16:19:23;4.63;;;2.55;;
64865;SDS011;51347;41.994;21.402;2022-08-11T16:21:50;6.22;;;2.92;;
64865;SDS011;51347;41.994;21.402;2022-08-11T16:24:16;4.55;;;3.20;;
64865;SDS011;51347;41.994;21.402;2022-08-11T16:26:42;4.68;;;3.53;;
64865;SDS011;51347;41.994;21.402;2022-08-11T16:29:09;11.85;;;3.90;;
64865;SDS011;51347;41.994;21.402;2022-08-11T16:31:35;8.60;;;4.05;;
64865;SDS011;51347;41.994;21.402;2022-08-11T16:34:01;13.55;;;6.80;;
64865;SDS011;51347;41.994;21.402;2022-08-11T16:36:27;11.45;;;6.50;;
64865;SDS011;51347;41.994;21.402;2022-08-11T16:39:11;7.03;;;4.13;;
64865;SDS011;51347;41.994;21.402;2022-08-11T16:44:26;3.25;;;2.60;;
64865;SDS011;51347;41.994;21.402;2022-08-11T16:47:12;5.82;;;3.00;;
64865;SDS011;51347;41.994;21.402;2022-08-11T16:49:46;4.88;;;2.55;;
64865;SDS011;51347;41.994;21.402;2022-08-11T16:52:12;5.80;;;2.78;;
64865;SDS011;51347;41.994;21.402;2022-08-11T16:54:38;5.03;;;2.63;;
64865;SDS011;51347;41.994;21.402;2022-08-11T16:57:04;4.47;;;2.25;;
64865;SDS011;51347;41.994;21.402;2022-08-11T16:59:50;4.70;;;2.38;;
64865;SDS011;51347;41.994;21.402;2022-08-11T17:02:17;7.65;;;2.85;;
64865;SDS011;51347;41.994;21.402;2022-08-11T17:05:06;3.97;;;2.58;;
64865;SDS011;51347;41.994;21.402;2022-08-11T17:07:50;2.90;;;2.30;;
64865;SDS011;51347;41.994;21.402;2022-08-11T17:10:40;4.53;;;2.97;;
64865;SDS011;51347;41.994;21.402;2022-08-11T17:13:28;5.70;;;2.75;;
64865;SDS011;51347;41.994;21.402;2022-08-11T17:15:57;2.55;;;2.20;;
64865;SDS011;51347;41.994;21.402;2022-08-11T17:18:39;5.32;;;2.45;;
64865;SDS011;51347;41.994;21.402;2022-08-11T17:21:23;7.60;;;2.58;;
64865;SDS011;51347;41.994;21.402;2022-08-11T17:23:54;3.83;;;2.75;;
64865;SDS011;51347;41.994;21.402;2022-08-11T17:26:25;4.07;;;2.63;;
64865;SDS011;51347;41.994;21.402;2022-08-11T17:28:55;5.60;;;4.10;;
64865;SDS011;51347;41.994;21.402;2022-08-11T17:31:22;4.70;;;2.85;;
64865;SDS011;51347;41.994;21.402;2022-08-11T17:34:06;5.85;;;4.20;;
64865;SDS011;51347;41.994;21.402;2022-08-11T17:36:51;5.45;;;3.40;;
64865;SDS011;51347;41.994;21.402;2022-08-11T17:39:17;6.68;;;3.97;;
64865;SDS011;51347;41.994;21.402;2022-08-11T17:41:43;5.32;;;3.58;;
64865;SDS011;51347;41.994;21.402;2022-08-11T17:44:27;6.40;;;3.80;;
64865;SDS011;51347;41.994;21.402;2022-08-11T17:47:12;7.30;;;3.88;;
64865;SDS011;51347;41.994;21.402;2022-08-11T17:49:56;3.70;;;3.30;;
64865;SDS011;51347;41.994;21.402;2022-08-11T17:52:22;4.20;;;2.67;;
64865;SDS011;51347;41.994;21.402;2022-08-11T17:55:07;5.55;;;3.58;;
64865;SDS011;51347;41.994;21.402;2022-08-11T17:57:52;7.07;;;4.35;;
64865;SDS011;51347;41.994;21.402;2022-08-11T18:00:36;4.55;;;3.17;;
64865;SDS011;51347;41.994;21.402;2022-08-11T18:03:02;6.65;;;3.05;;
64865;SDS011;51347;41.994;21.402;2022-08-11T18:05:47;5.57;;;3.22;;
64865;SDS011;51347;41.994;21.402;2022-08-11T18:08:13;5.30;;;2.75;;
64865;SDS011;51347;41.994;21.402;2022-08-11T18:10:59;4.82;;;3.00;;
64865;SDS011;51347;41.994;21.402;2022-08-11T18:13:43;5.20;;;3.08;;
64865;SDS011;51347;41.994;21.402;2022-08-11T18:16:28;4.80;;;3.30;;
64865;SDS011;51347;41.994;21.402;2022-08-11T18:19:12;7.05;;;3.17;;
64865;SDS011;51347;41.994;21.402;2022-08-11T18:22:00;3.47;;;2.45;;
64865;SDS011;51347;41.994;21.402;2022-08-11T18:24:51;4.90;;;2.40;;
64865;SDS011;51347;41.994;21.402;2022-08-11T18:27:35;4.78;;;2.78;;
64865;SDS011;51347;41.994;21.402;2022-08-11T18:30:20;5.75;;;2.53;;
64865;SDS011;51347;41.994;21.402;2022-08-11T18:33:05;4.78;;;2.65;;
64865;SDS011;51347;41.994;21.402;2022-08-11T18:35:52;6.35;;;3.28;;
64865;SDS011;51347;41.994;21.402;2022-08-11T18:38:37;6.60;;;3.03;;
64865;SDS011;51347;41.994;21.402;2022-08-11T18:41:21;4.90;;;3.05;;